DLH8EW EDDH-EDDF
Flight info
| Callsign | DLH8EW |
|---|---|
| Flight time | 0h 46m |
| Altitude | 30000 |
| Route | AMLUH2G AMLUH M852 DENIX DCT RIMET/N0453F310 T157 KOKEB/N0410F230 T157 KERAX KERAX5A |
| Aircraft | A320/M-SDE3FGHIRWY/LB1 |
Departure
| Time | 2026-05-06 16:59 |
|---|---|
| Airport | Hamburg Helmut Schmidt Airport (EDDH) |
Arrival
| Time | 2026-05-06 17:45 |
|---|---|
| Airport | Frankfurt Main Airport (EDDF) |
| Time | Latitude | Longitude | Altitude | Speed | Heading |
|---|---|---|---|---|---|
| 2026-05-06 16:39 | 53.63208 | 10.00365 | 51 ft | 0 kts | 87° |
| 2026-05-06 16:45 | 53.63207 | 10.00354 | 51 ft | 2 kts | 87° |
| 2026-05-06 16:45 | 53.63206 | 10.00320 | 51 ft | 3 kts | 87° |
| 2026-05-06 16:46 | 53.63205 | 10.00286 | 51 ft | 3 kts | 87° |
| 2026-05-06 16:46 | 53.63204 | 10.00252 | 51 ft | 3 kts | 87° |
| 2026-05-06 16:46 | 53.63203 | 10.00219 | 51 ft | 3 kts | 96° |
| 2026-05-06 16:46 | 53.63208 | 10.00191 | 51 ft | 3 kts | 136° |
| 2026-05-06 16:47 | 53.63219 | 10.00180 | 47 ft | 1 kts | 176° |
| 2026-05-06 16:47 | 53.63228 | 10.00179 | 51 ft | 1 kts | 176° |
| 2026-05-06 16:47 | 53.63228 | 10.00178 | 51 ft | 0 kts | 176° |
| 2026-05-06 16:51 | 53.63215 | 10.00180 | 47 ft | 6 kts | 176° |
| 2026-05-06 16:51 | 53.63166 | 10.00186 | 48 ft | 7 kts | 175° |
| 2026-05-06 16:51 | 53.63120 | 10.00192 | 51 ft | 6 kts | 175° |
| 2026-05-06 16:51 | 53.63080 | 10.00188 | 51 ft | 5 kts | 195° |
| 2026-05-06 16:52 | 53.63034 | 10.00143 | 51 ft | 9 kts | 213° |
| 2026-05-06 16:52 | 53.62985 | 10.00092 | 51 ft | 8 kts | 212° |
| 2026-05-06 16:52 | 53.62940 | 10.00046 | 49 ft | 7 kts | 211° |
| 2026-05-06 16:52 | 53.62896 | 10.00039 | 50 ft | 6 kts | 178° |
| 2026-05-06 16:53 | 53.62866 | 10.00013 | 47 ft | 4 kts | 226° |
| 2026-05-06 16:53 | 53.62850 | 9.99973 | 48 ft | 4 kts | 240° |
| 2026-05-06 16:53 | 53.62849 | 9.99967 | 49 ft | 2 kts | 240° |
| 2026-05-06 16:53 | 53.62840 | 9.99942 | 50 ft | 0 kts | 241° |
| 2026-05-06 16:54 | 53.62840 | 9.99940 | 50 ft | 0 kts | 241° |
| 2026-05-06 16:54 | 53.62828 | 9.99905 | 50 ft | 8 kts | 241° |
| 2026-05-06 16:54 | 53.62810 | 9.99817 | 49 ft | 8 kts | 279° |
| 2026-05-06 16:55 | 53.62838 | 9.99770 | 49 ft | 0 kts | 332° |
| 2026-05-06 16:58 | 53.62857 | 9.99753 | 47 ft | 15 kts | 332° |
| 2026-05-06 16:58 | 53.63156 | 9.99500 | 50 ft | 86 kts | 334° |
| 2026-05-06 16:58 | 53.63889 | 9.98873 | 49 ft | 149 kts | 333° |
| 2026-05-06 16:59 | 53.64878 | 9.98026 | 577 ft | 161 kts | 338° |
| 2026-05-06 16:59 | 53.65882 | 9.97186 | 1350 ft | 163 kts | 339° |
| 2026-05-06 16:59 | 53.66954 | 9.96275 | 1843 ft | 183 kts | 339° |
| 2026-05-06 16:59 | 53.68159 | 9.95246 | 2229 ft | 205 kts | 340° |
| 2026-05-06 17:00 | 53.69551 | 9.94699 | 2914 ft | 207 kts | 5° |
| 2026-05-06 17:00 | 53.70996 | 9.94705 | 3831 ft | 209 kts | 4° |
| 2026-05-06 17:00 | 53.72430 | 9.95059 | 4676 ft | 210 kts | 30° |
| 2026-05-06 17:00 | 53.73401 | 9.96839 | 5479 ft | 213 kts | 69° |
| 2026-05-06 17:01 | 53.73818 | 9.99267 | 6336 ft | 218 kts | 75° |
| 2026-05-06 17:01 | 53.74092 | 10.01807 | 7145 ft | 224 kts | 88° |
| 2026-05-06 17:01 | 53.73860 | 10.04455 | 7872 ft | 238 kts | 106° |
| 2026-05-06 17:01 | 53.73081 | 10.07090 | 8303 ft | 265 kts | 117° |
| 2026-05-06 17:02 | 53.72122 | 10.09881 | 8880 ft | 281 kts | 118° |
| 2026-05-06 17:02 | 53.71143 | 10.12776 | 9723 ft | 288 kts | 118° |
| 2026-05-06 17:02 | 53.70100 | 10.15746 | 10313 ft | 305 kts | 122° |
| 2026-05-06 17:02 | 53.68660 | 10.18537 | 10753 ft | 325 kts | 137° |
| 2026-05-06 17:03 | 53.66802 | 10.20784 | 11551 ft | 331 kts | 150° |
| 2026-05-06 17:03 | 53.64708 | 10.22265 | 12487 ft | 332 kts | 163° |
| 2026-05-06 17:03 | 53.62472 | 10.23289 | 13423 ft | 333 kts | 165° |
| 2026-05-06 17:03 | 53.60240 | 10.24308 | 14269 ft | 334 kts | 165° |
| 2026-05-06 17:04 | 53.57957 | 10.25356 | 15101 ft | 336 kts | 165° |
| 2026-05-06 17:04 | 53.55686 | 10.26400 | 15849 ft | 340 kts | 166° |
| 2026-05-06 17:04 | 53.53391 | 10.27452 | 16507 ft | 345 kts | 166° |
| 2026-05-06 17:04 | 53.51060 | 10.28520 | 17196 ft | 349 kts | 166° |
| 2026-05-06 17:05 | 53.48737 | 10.29583 | 17905 ft | 352 kts | 167° |
| 2026-05-06 17:05 | 53.46361 | 10.30669 | 18564 ft | 356 kts | 167° |
| 2026-05-06 17:05 | 53.43934 | 10.31776 | 19200 ft | 359 kts | 167° |
| 2026-05-06 17:05 | 53.41502 | 10.32879 | 19833 ft | 363 kts | 166° |
| 2026-05-06 17:06 | 53.39053 | 10.33985 | 20456 ft | 367 kts | 167° |
| 2026-05-06 17:06 | 53.36576 | 10.35098 | 21116 ft | 370 kts | 167° |
| 2026-05-06 17:06 | 53.34077 | 10.36217 | 21747 ft | 374 kts | 166° |
| 2026-05-06 17:06 | 53.31552 | 10.37347 | 22347 ft | 378 kts | 166° |
| 2026-05-06 17:07 | 53.29001 | 10.38494 | 22696 ft | 381 kts | 167° |
| 2026-05-06 17:07 | 53.26414 | 10.39654 | 23109 ft | 388 kts | 168° |
| 2026-05-06 17:07 | 53.23795 | 10.40822 | 23572 ft | 393 kts | 168° |
| 2026-05-06 17:07 | 53.21142 | 10.42005 | 24032 ft | 396 kts | 168° |
| 2026-05-06 17:08 | 53.18473 | 10.43196 | 24505 ft | 398 kts | 169° |
| 2026-05-06 17:08 | 53.15784 | 10.44392 | 24961 ft | 401 kts | 169° |
| 2026-05-06 17:08 | 53.13058 | 10.45259 | 25398 ft | 399 kts | 179° |
| 2026-05-06 17:08 | 53.10334 | 10.45341 | 25838 ft | 396 kts | 188° |
| 2026-05-06 17:09 | 53.07546 | 10.44947 | 26287 ft | 397 kts | 189° |
| 2026-05-06 17:09 | 53.04785 | 10.44560 | 26753 ft | 399 kts | 189° |
| 2026-05-06 17:09 | 53.02010 | 10.44182 | 27201 ft | 401 kts | 189° |
| 2026-05-06 17:09 | 52.99219 | 10.43806 | 27643 ft | 404 kts | 189° |
| 2026-05-06 17:10 | 52.96410 | 10.43428 | 28081 ft | 406 kts | 189° |
| 2026-05-06 17:10 | 52.93628 | 10.43051 | 28505 ft | 408 kts | 189° |
| 2026-05-06 17:10 | 52.90794 | 10.42666 | 28917 ft | 410 kts | 190° |
| 2026-05-06 17:10 | 52.87947 | 10.42278 | 29344 ft | 412 kts | 190° |
| 2026-05-06 17:11 | 52.85085 | 10.41886 | 29744 ft | 414 kts | 190° |
| 2026-05-06 17:11 | 52.79462 | 10.41136 | 29806 ft | 392 kts | 190° |
| 2026-05-06 17:11 | 52.76706 | 10.40767 | 29831 ft | 403 kts | 191° |
| 2026-05-06 17:12 | 52.73873 | 10.40372 | 29840 ft | 415 kts | 191° |
| 2026-05-06 17:12 | 52.68000 | 10.39547 | 29828 ft | 428 kts | 190° |
| 2026-05-06 17:13 | 52.62040 | 10.38750 | 29827 ft | 430 kts | 190° |
| 2026-05-06 17:13 | 52.56070 | 10.37960 | 29819 ft | 431 kts | 190° |
| 2026-05-06 17:14 | 52.50111 | 10.37175 | 29821 ft | 429 kts | 189° |
| 2026-05-06 17:14 | 52.44168 | 10.36377 | 29813 ft | 428 kts | 189° |
| 2026-05-06 17:15 | 52.38231 | 10.35584 | 29812 ft | 428 kts | 189° |
| 2026-05-06 17:15 | 52.32298 | 10.34788 | 29803 ft | 428 kts | 189° |
| 2026-05-06 17:16 | 52.26367 | 10.33999 | 29793 ft | 428 kts | 189° |
| 2026-05-06 17:16 | 52.20434 | 10.33224 | 29798 ft | 427 kts | 189° |
| 2026-05-06 17:17 | 52.14513 | 10.32438 | 29803 ft | 427 kts | 189° |
| 2026-05-06 17:17 | 52.08591 | 10.31648 | 29802 ft | 427 kts | 189° |
| 2026-05-06 17:18 | 52.02664 | 10.30880 | 29804 ft | 427 kts | 188° |
| 2026-05-06 17:18 | 51.96751 | 10.30116 | 29804 ft | 426 kts | 188° |
| 2026-05-06 17:19 | 51.90850 | 10.29338 | 29788 ft | 425 kts | 188° |
| 2026-05-06 17:19 | 51.84991 | 10.28583 | 29804 ft | 425 kts | 188° |
| 2026-05-06 17:20 | 51.79109 | 10.27824 | 29797 ft | 424 kts | 188° |
| 2026-05-06 17:20 | 51.73245 | 10.27058 | 29798 ft | 423 kts | 188° |
| 2026-05-06 17:21 | 51.67370 | 10.26297 | 29805 ft | 423 kts | 188° |
| 2026-05-06 17:21 | 51.61503 | 10.25548 | 29800 ft | 423 kts | 188° |
| 2026-05-06 17:22 | 51.55637 | 10.24792 | 29790 ft | 423 kts | 188° |
| 2026-05-06 17:22 | 51.49777 | 10.24041 | 29785 ft | 422 kts | 188° |
| 2026-05-06 17:23 | 51.43923 | 10.23288 | 29793 ft | 422 kts | 188° |
| 2026-05-06 17:23 | 51.38067 | 10.22541 | 29788 ft | 422 kts | 188° |
| 2026-05-06 17:24 | 51.32214 | 10.21834 | 29785 ft | 422 kts | 186° |
| 2026-05-06 17:24 | 51.26353 | 10.21586 | 29332 ft | 419 kts | 183° |
| 2026-05-06 17:24 | 51.23426 | 10.21584 | 28203 ft | 422 kts | 182° |
| 2026-05-06 17:25 | 51.20467 | 10.21597 | 27253 ft | 428 kts | 182° |
| 2026-05-06 17:25 | 51.17481 | 10.21598 | 26477 ft | 432 kts | 182° |
| 2026-05-06 17:25 | 51.14455 | 10.21577 | 25741 ft | 436 kts | 182° |
| 2026-05-06 17:25 | 51.11406 | 10.21535 | 25130 ft | 439 kts | 182° |
| 2026-05-06 17:26 | 51.08337 | 10.21480 | 24556 ft | 443 kts | 182° |
| 2026-05-06 17:26 | 51.05250 | 10.21415 | 23975 ft | 446 kts | 182° |
| 2026-05-06 17:26 | 51.02140 | 10.21348 | 23417 ft | 448 kts | 182° |
| 2026-05-06 17:26 | 50.99014 | 10.21287 | 22765 ft | 448 kts | 182° |
| 2026-05-06 17:27 | 50.95916 | 10.21235 | 21769 ft | 445 kts | 182° |
| 2026-05-06 17:27 | 50.92835 | 10.21183 | 21107 ft | 437 kts | 182° |
| 2026-05-06 17:27 | 50.89863 | 10.21133 | 20949 ft | 417 kts | 182° |
| 2026-05-06 17:27 | 50.86999 | 10.21078 | 20627 ft | 407 kts | 182° |
| 2026-05-06 17:28 | 50.84188 | 10.20946 | 19996 ft | 401 kts | 188° |
| 2026-05-06 17:28 | 50.81533 | 10.19814 | 19445 ft | 392 kts | 205° |
| 2026-05-06 17:28 | 50.79277 | 10.17500 | 18927 ft | 385 kts | 223° |
| 2026-05-06 17:28 | 50.77608 | 10.14243 | 18434 ft | 381 kts | 240° |
| 2026-05-06 17:29 | 50.76407 | 10.10529 | 17909 ft | 379 kts | 243° |
| 2026-05-06 17:29 | 50.75232 | 10.06820 | 17351 ft | 376 kts | 243° |
| 2026-05-06 17:29 | 50.74062 | 10.03140 | 16781 ft | 374 kts | 243° |
| 2026-05-06 17:29 | 50.72898 | 9.99492 | 16248 ft | 371 kts | 243° |
| 2026-05-06 17:30 | 50.71741 | 9.95872 | 15709 ft | 368 kts | 242° |
| 2026-05-06 17:30 | 50.70591 | 9.92284 | 15192 ft | 365 kts | 242° |
| 2026-05-06 17:30 | 50.69447 | 9.88725 | 14665 ft | 362 kts | 242° |
| 2026-05-06 17:30 | 50.68311 | 9.85195 | 14165 ft | 360 kts | 242° |
| 2026-05-06 17:31 | 50.67182 | 9.81693 | 13714 ft | 356 kts | 242° |
| 2026-05-06 17:31 | 50.66061 | 9.78229 | 13249 ft | 354 kts | 242° |
| 2026-05-06 17:31 | 50.64948 | 9.74788 | 12775 ft | 351 kts | 242° |
| 2026-05-06 17:31 | 50.63836 | 9.71388 | 12306 ft | 348 kts | 240° |
| 2026-05-06 17:32 | 50.62374 | 9.68391 | 11887 ft | 345 kts | 224° |
| 2026-05-06 17:32 | 50.61140 | 9.66828 | 11618 ft | 344 kts | 213° |
| 2026-05-06 17:32 | 50.58992 | 9.65203 | 11314 ft | 343 kts | 202° |
| 2026-05-06 17:32 | 50.56767 | 9.63855 | 11061 ft | 342 kts | 202° |
| 2026-05-06 17:33 | 50.54547 | 9.62507 | 10849 ft | 341 kts | 202° |
| 2026-05-06 17:33 | 50.52380 | 9.61189 | 10780 ft | 329 kts | 202° |
| 2026-05-06 17:33 | 50.50235 | 9.59844 | 10791 ft | 326 kts | 206° |
| 2026-05-06 17:33 | 50.48406 | 9.57877 | 10799 ft | 324 kts | 224° |
| 2026-05-06 17:34 | 50.47043 | 9.55065 | 10795 ft | 325 kts | 240° |
| 2026-05-06 17:34 | 50.45849 | 9.52050 | 10797 ft | 326 kts | 235° |
| 2026-05-06 17:34 | 50.44535 | 9.49158 | 10801 ft | 326 kts | 234° |
| 2026-05-06 17:34 | 50.43208 | 9.46274 | 10788 ft | 326 kts | 234° |
| 2026-05-06 17:35 | 50.41882 | 9.43393 | 10796 ft | 326 kts | 234° |
| 2026-05-06 17:35 | 50.40556 | 9.40516 | 10798 ft | 326 kts | 234° |
| 2026-05-06 17:35 | 50.39230 | 9.37638 | 10805 ft | 326 kts | 234° |
| 2026-05-06 17:36 | 50.36577 | 9.31888 | 10649 ft | 323 kts | 234° |
| 2026-05-06 17:36 | 50.35264 | 9.29087 | 10395 ft | 313 kts | 233° |
| 2026-05-06 17:36 | 50.34008 | 9.26400 | 10268 ft | 298 kts | 234° |
| 2026-05-06 17:36 | 50.32837 | 9.23869 | 9937 ft | 280 kts | 234° |
| 2026-05-06 17:37 | 50.31712 | 9.21413 | 9413 ft | 276 kts | 234° |
| 2026-05-06 17:37 | 50.30597 | 9.18988 | 9025 ft | 274 kts | 234° |
| 2026-05-06 17:37 | 50.29432 | 9.16639 | 8626 ft | 272 kts | 227° |
| 2026-05-06 17:37 | 50.28101 | 9.14550 | 8244 ft | 270 kts | 224° |
| 2026-05-06 17:38 | 50.26752 | 9.12514 | 7859 ft | 269 kts | 224° |
| 2026-05-06 17:38 | 50.25407 | 9.10495 | 7462 ft | 267 kts | 224° |
| 2026-05-06 17:38 | 50.24067 | 9.08490 | 7161 ft | 266 kts | 224° |
| 2026-05-06 17:38 | 50.22732 | 9.06496 | 6864 ft | 266 kts | 224° |
| 2026-05-06 17:39 | 50.21401 | 9.04508 | 6571 ft | 264 kts | 224° |
| 2026-05-06 17:39 | 50.20075 | 9.02529 | 6276 ft | 263 kts | 224° |
| 2026-05-06 17:39 | 50.18759 | 9.00566 | 5977 ft | 262 kts | 224° |
| 2026-05-06 17:39 | 50.17446 | 8.98609 | 5736 ft | 260 kts | 224° |
| 2026-05-06 17:40 | 50.16136 | 8.96659 | 5567 ft | 260 kts | 224° |
| 2026-05-06 17:40 | 50.14826 | 8.94714 | 5384 ft | 260 kts | 225° |
| 2026-05-06 17:40 | 50.13812 | 8.92419 | 5209 ft | 259 kts | 247° |
| 2026-05-06 17:40 | 50.13186 | 8.89791 | 5069 ft | 259 kts | 250° |
| 2026-05-06 17:41 | 50.12583 | 8.87156 | 5000 ft | 258 kts | 250° |
| 2026-05-06 17:41 | 50.11978 | 8.84567 | 4792 ft | 257 kts | 250° |
| 2026-05-06 17:41 | 50.11365 | 8.81967 | 4456 ft | 253 kts | 249° |
| 2026-05-06 17:41 | 50.10764 | 8.79423 | 4096 ft | 249 kts | 250° |
| 2026-05-06 17:42 | 50.10172 | 8.76912 | 3750 ft | 245 kts | 250° |
| 2026-05-06 17:42 | 50.09589 | 8.74447 | 3396 ft | 240 kts | 250° |
| 2026-05-06 17:42 | 50.09025 | 8.72066 | 3061 ft | 231 kts | 250° |
| 2026-05-06 17:42 | 50.08476 | 8.69749 | 2733 ft | 223 kts | 251° |
| 2026-05-06 17:43 | 50.07947 | 8.67519 | 2423 ft | 217 kts | 252° |
| 2026-05-06 17:43 | 50.07433 | 8.65352 | 2107 ft | 207 kts | 252° |
| 2026-05-06 17:43 | 50.06953 | 8.63338 | 1837 ft | 188 kts | 251° |
| 2026-05-06 17:43 | 50.06524 | 8.61538 | 1591 ft | 167 kts | 253° |
| 2026-05-06 17:44 | 50.06146 | 8.59951 | 1352 ft | 148 kts | 253° |
| 2026-05-06 17:44 | 50.05796 | 8.58503 | 1149 ft | 141 kts | 252° |
| 2026-05-06 17:44 | 50.05470 | 8.57118 | 917 ft | 134 kts | 251° |
| 2026-05-06 17:44 | 50.05148 | 8.55784 | 732 ft | 131 kts | 251° |
| 2026-05-06 17:45 | 50.04838 | 8.54460 | 579 ft | 130 kts | 252° |
| 2026-05-06 17:45 | 50.04531 | 8.53167 | 387 ft | 125 kts | 251° |
| 2026-05-06 17:45 | 50.04255 | 8.52001 | 336 ft | 101 kts | 250° |
| 2026-05-06 17:45 | 50.04069 | 8.51233 | 330 ft | 45 kts | 247° |
| 2026-05-06 17:46 | 50.03932 | 8.50956 | 327 ft | 26 kts | 226° |
| 2026-05-06 17:46 | 50.03816 | 8.50853 | 326 ft | 15 kts | 168° |
| 2026-05-06 17:46 | 50.03794 | 8.50975 | 324 ft | 11 kts | 77° |
| 2026-05-06 17:46 | 50.03835 | 8.51150 | 330 ft | 26 kts | 70° |
| 2026-05-06 17:47 | 50.03902 | 8.51429 | 332 ft | 28 kts | 70° |
| 2026-05-06 17:47 | 50.03972 | 8.51720 | 333 ft | 29 kts | 69° |
| 2026-05-06 17:47 | 50.04043 | 8.52021 | 336 ft | 29 kts | 69° |
| 2026-05-06 17:47 | 50.04115 | 8.52318 | 350 ft | 30 kts | 70° |
| 2026-05-06 17:48 | 50.04184 | 8.52608 | 353 ft | 29 kts | 69° |
| 2026-05-06 17:48 | 50.04253 | 8.52893 | 353 ft | 25 kts | 69° |
| 2026-05-06 17:48 | 50.04313 | 8.53144 | 359 ft | 25 kts | 69° |
| 2026-05-06 17:48 | 50.04373 | 8.53393 | 360 ft | 25 kts | 69° |
| 2026-05-06 17:49 | 50.04405 | 8.53663 | 359 ft | 26 kts | 84° |
| 2026-05-06 17:49 | 50.04422 | 8.53929 | 359 ft | 25 kts | 84° |
| 2026-05-06 17:49 | 50.04442 | 8.54208 | 363 ft | 27 kts | 84° |
| 2026-05-06 17:49 | 50.04454 | 8.54448 | 359 ft | 22 kts | 93° |
| 2026-05-06 17:50 | 50.04404 | 8.54657 | 361 ft | 20 kts | 130° |
| 2026-05-06 17:50 | 50.04294 | 8.54784 | 359 ft | 19 kts | 159° |
| 2026-05-06 17:50 | 50.04181 | 8.54847 | 362 ft | 13 kts | 161° |
| 2026-05-06 17:50 | 50.04109 | 8.54888 | 359 ft | 9 kts | 159° |
| 2026-05-06 17:51 | 50.04075 | 8.54908 | 362 ft | 3 kts | 159° |
| 2026-05-06 17:51 | 50.04072 | 8.54910 | 362 ft | 0 kts | 159° |
| 2026-05-06 17:51 | 50.04049 | 8.54923 | 360 ft | 13 kts | 159° |
| 2026-05-06 17:51 | 50.03956 | 8.54979 | 359 ft | 14 kts | 159° |
| 2026-05-06 17:52 | 50.03868 | 8.55034 | 358 ft | 13 kts | 151° |
| 2026-05-06 17:52 | 50.03859 | 8.55155 | 362 ft | 12 kts | 70° |
| 2026-05-06 17:52 | 50.03886 | 8.55268 | 360 ft | 11 kts | 69° |
| 2026-05-06 17:52 | 50.03920 | 8.55409 | 358 ft | 17 kts | 69° |
| 2026-05-06 17:53 | 50.03968 | 8.55612 | 364 ft | 21 kts | 70° |
| 2026-05-06 17:53 | 50.04021 | 8.55836 | 359 ft | 23 kts | 70° |
| 2026-05-06 17:53 | 50.04079 | 8.56077 | 362 ft | 25 kts | 70° |
| 2026-05-06 17:53 | 50.04139 | 8.56273 | 358 ft | 16 kts | 22° |
| 2026-05-06 17:54 | 50.04247 | 8.56237 | 360 ft | 17 kts | 338° |
| 2026-05-06 17:54 | 50.04296 | 8.56104 | 361 ft | 13 kts | 294° |
| 2026-05-06 17:54 | 50.04376 | 8.56036 | 359 ft | 15 kts | 340° |
| 2026-05-06 17:54 | 50.04441 | 8.56073 | 359 ft | 8 kts | 64° |
| 2026-05-06 17:55 | 50.04441 | 8.56127 | 359 ft | 4 kts | 134° |
| 2026-05-06 17:55 | 50.04423 | 8.56144 | 359 ft | 3 kts | 151° |
| 2026-05-06 17:55 | 50.04409 | 8.56155 | 359 ft | 2 kts | 154° |
| 2026-05-06 17:55 | 50.04400 | 8.56161 | 359 ft | 1 kts | 154° |
| 2026-05-06 17:56 | 50.04398 | 8.56163 | 362 ft | 1 kts | 154° |
| 2026-05-06 17:56 | 50.04391 | 8.56168 | 360 ft | 1 kts | 155° |
| 2026-05-06 17:56 | 50.04389 | 8.56169 | 360 ft | 0 kts | 155° |